createdAt,value
2023-03-24T00:01:28.187Z,13.20
2023-03-24T00:04:15.517Z,13.30
2023-03-24T00:07:03.239Z,13.20
2023-03-24T00:09:50.092Z,13.20
2023-03-24T00:12:39.431Z,13.20
2023-03-24T00:15:27.774Z,13.30
2023-03-24T00:18:14.650Z,13.30
2023-03-24T00:21:01.399Z,13.20
2023-03-24T00:23:49.378Z,13.30
2023-03-24T00:26:38.085Z,13.30
2023-03-24T00:29:26.784Z,13.40
2023-03-24T00:32:13.261Z,13.50
2023-03-24T00:35:01.658Z,13.40
2023-03-24T00:37:49.964Z,13.40
2023-03-24T00:40:36.734Z,13.30
2023-03-24T00:43:23.469Z,13.40
2023-03-24T00:46:28.447Z,13.40
2023-03-24T00:49:15.635Z,13.40
2023-03-24T00:52:09.756Z,13.40
2023-03-24T00:54:58.261Z,13.40
2023-03-24T00:57:50.320Z,13.30
2023-03-24T01:00:42.198Z,13.40
2023-03-24T01:03:30.514Z,13.40
2023-03-24T01:06:18.036Z,13.40
2023-03-24T01:09:05.714Z,13.50
2023-03-24T01:11:52.415Z,13.40
2023-03-24T01:14:38.795Z,13.50
2023-03-24T01:17:25.776Z,13.50
2023-03-24T01:20:14.465Z,13.50
2023-03-24T01:23:02.509Z,13.50
2023-03-24T01:25:49.972Z,13.50
2023-03-24T01:28:40.829Z,13.50
2023-03-24T01:31:27.612Z,13.40
2023-03-24T01:34:13.970Z,13.40
2023-03-24T01:37:02.367Z,13.40
2023-03-24T01:39:49.318Z,13.30
2023-03-24T01:42:36.157Z,13.40
2023-03-24T01:45:46.407Z,13.40
2023-03-24T01:48:37.172Z,13.40
2023-03-24T01:51:27.445Z,13.40
2023-03-24T01:54:19.960Z,13.40
2023-03-24T01:57:10.734Z,13.30
2023-03-24T02:00:00.986Z,13.30
2023-03-24T02:02:54.625Z,13.30
2023-03-24T02:05:44.702Z,13.30
2023-03-24T02:08:35.504Z,13.30
2023-03-24T02:11:26.022Z,13.20
2023-03-24T02:14:13.557Z,13.30
2023-03-24T02:17:16.426Z,13.20
2023-03-24T02:20:44.954Z,13.20
2023-03-24T02:24:08.660Z,13.20
2023-03-24T02:27:07.977Z,13.20
2023-03-24T02:30:34.022Z,13.20
2023-03-24T02:34:04.619Z,13.20
2023-03-24T02:37:37.400Z,13.30
2023-03-24T02:40:35.880Z,13.20
2023-03-24T02:43:32.687Z,13.10
2023-03-24T02:46:24.823Z,13.10
2023-03-24T02:49:21.587Z,13.10
2023-03-24T02:52:17.768Z,13.10
2023-03-24T02:55:10.872Z,13.10
2023-03-24T02:58:02.611Z,13.10
2023-03-24T03:00:53.411Z,13.10
2023-03-24T03:03:43.792Z,13.10
2023-03-24T03:06:32.786Z,13.10
2023-03-24T03:09:22.290Z,13.10
2023-03-24T03:12:13.587Z,13.00
2023-03-24T03:15:06.216Z,13.10
2023-03-24T03:17:58.774Z,13.10
2023-03-24T03:20:50.803Z,13.00
2023-03-24T03:23:39.407Z,13.00
2023-03-24T03:26:28.568Z,13.10
2023-03-24T03:29:18.762Z,13.20
2023-03-24T03:32:10.715Z,13.20
2023-03-24T03:35:02.133Z,13.10
2023-03-24T03:37:54.030Z,13.10
2023-03-24T03:40:44.095Z,13.10
2023-03-24T03:43:33.389Z,13.10
2023-03-24T03:46:20.477Z,13.20
2023-03-24T03:49:09.420Z,13.20
2023-03-24T03:51:57.245Z,13.20
2023-03-24T03:54:44.773Z,13.20
2023-03-24T03:57:32.736Z,13.20
2023-03-24T04:00:24.705Z,13.20
2023-03-24T04:03:26.000Z,13.20
2023-03-24T04:06:25.343Z,13.30
2023-03-24T04:09:25.306Z,13.20
2023-03-24T04:12:34.343Z,13.20
2023-03-24T04:15:35.316Z,13.30
2023-03-24T04:18:41.646Z,13.20
2023-03-24T04:21:42.192Z,13.20
2023-03-24T04:24:43.985Z,13.20
2023-03-24T04:27:38.581Z,13.30
2023-03-24T04:30:32.894Z,13.30
2023-03-24T04:33:22.347Z,13.50
2023-03-24T04:36:19.173Z,13.40
2023-03-24T04:39:07.739Z,13.40
2023-03-24T04:41:56.300Z,13.40
2023-03-24T04:44:43.473Z,13.50
2023-03-24T04:47:33.539Z,13.50
2023-03-24T04:50:30.914Z,13.50
2023-03-24T04:53:17.354Z,13.50
2023-03-24T04:56:30.448Z,13.50
2023-03-24T04:59:17.614Z,13.50
2023-03-24T05:02:05.644Z,13.50
2023-03-24T05:04:52.996Z,13.50
2023-03-24T05:07:39.963Z,13.50
2023-03-24T05:10:26.358Z,13.60
2023-03-24T05:13:15.271Z,13.50
2023-03-24T05:16:02.039Z,13.50
2023-03-24T05:18:48.484Z,13.50
2023-03-24T05:21:35.860Z,13.50
2023-03-24T05:24:22.386Z,13.50
2023-03-24T05:27:08.709Z,13.50
2023-03-24T05:29:56.425Z,13.50
2023-03-24T05:32:44.827Z,13.50
2023-03-24T05:35:32.673Z,13.50
2023-03-24T05:38:19.516Z,13.50
2023-03-24T05:41:07.134Z,13.50
2023-03-24T05:43:53.924Z,13.60
2023-03-24T05:46:42.504Z,13.60
2023-03-24T05:49:29.401Z,13.60
2023-03-24T05:52:16.462Z,13.60
2023-03-24T05:55:04.554Z,13.70
2023-03-24T05:57:51.229Z,13.70
2023-03-24T06:00:38.162Z,13.70
2023-03-24T06:03:34.204Z,13.70
2023-03-24T06:06:22.329Z,13.70
2023-03-24T06:09:09.016Z,13.70
2023-03-24T06:11:55.524Z,13.70
2023-03-24T06:14:41.868Z,13.80
2023-03-24T06:17:30.561Z,13.80
2023-03-24T06:20:18.879Z,13.80
2023-03-24T06:23:05.130Z,13.70
2023-03-24T06:25:51.510Z,13.70
2023-03-24T06:28:39.735Z,13.80
2023-03-24T06:31:29.529Z,13.90
2023-03-24T06:34:15.986Z,13.90
2023-03-24T06:37:03.712Z,13.80
2023-03-24T06:39:51.017Z,13.80
2023-03-24T06:42:37.673Z,13.90
2023-03-24T06:45:24.441Z,14.00
2023-03-24T06:48:10.931Z,14.10
2023-03-24T06:50:57.335Z,14.10
2023-03-24T06:53:45.831Z,14.10
2023-03-24T06:56:32.316Z,14.00
2023-03-24T06:59:23.539Z,14.10
2023-03-24T07:02:12.532Z,14.10
2023-03-24T07:04:58.913Z,14.10
2023-03-24T07:10:37.083Z,14.10
2023-03-24T07:13:23.569Z,14.00
2023-03-24T07:16:10.154Z,14.00
2023-03-24T07:18:56.695Z,14.10
2023-03-24T07:21:43.106Z,14.20
2023-03-24T07:24:31.638Z,14.30
2023-03-24T07:27:19.837Z,14.50
2023-03-24T07:30:09.107Z,14.60
2023-03-24T07:32:57.474Z,14.60
2023-03-24T07:35:44.175Z,14.60
2023-03-24T07:38:31.168Z,14.70
2023-03-24T07:41:17.610Z,14.70
2023-03-24T07:44:05.402Z,14.70
2023-03-24T07:46:52.120Z,14.70
2023-03-24T07:49:38.563Z,14.70
2023-03-24T07:52:25.075Z,14.70
2023-03-24T07:55:13.503Z,14.70
2023-03-24T07:58:00.219Z,14.80
2023-03-24T08:00:48.340Z,14.90
2023-03-24T08:03:36.374Z,14.90
2023-03-24T08:06:23.247Z,14.90
2023-03-24T08:09:11.292Z,15.10
2023-03-24T08:12:00.584Z,15.40
2023-03-24T08:14:53.555Z,15.60
2023-03-24T08:17:41.353Z,15.70
2023-03-24T08:20:29.523Z,15.90
2023-03-24T08:23:16.372Z,16.20
2023-03-24T08:26:03.118Z,16.60
2023-03-24T08:28:49.494Z,16.80
2023-03-24T08:31:37.396Z,17.10
2023-03-24T08:34:25.243Z,17.40
2023-03-24T08:37:14.464Z,17.50
2023-03-24T08:40:12.068Z,17.60
2023-03-24T08:43:00.757Z,17.90
2023-03-24T08:45:47.591Z,18.50
2023-03-24T08:48:37.112Z,18.40
2023-03-24T08:51:25.321Z,18.50
2023-03-24T08:54:12.988Z,18.20
2023-03-24T08:56:59.452Z,18.00
2023-03-24T08:59:46.462Z,17.70
2023-03-24T09:02:33.274Z,17.60
2023-03-24T09:05:33.175Z,17.70
2023-03-24T09:08:29.051Z,17.70
2023-03-24T09:11:18.866Z,17.60
2023-03-24T09:14:05.556Z,17.50
2023-03-24T09:16:52.551Z,17.50
2023-03-24T09:19:39.122Z,17.30
2023-03-24T09:22:25.970Z,17.30
2023-03-24T09:25:16.722Z,17.20
2023-03-24T09:28:03.227Z,17.10
2023-03-24T09:30:50.370Z,17.10
2023-03-24T09:33:36.991Z,17.30
2023-03-24T09:36:23.837Z,17.60
2023-03-24T09:39:10.324Z,17.70
2023-03-24T09:41:58.285Z,17.70
2023-03-24T09:44:49.013Z,17.80
2023-03-24T09:47:41.931Z,17.80
2023-03-24T09:50:34.367Z,17.70
2023-03-24T09:53:32.484Z,17.70
2023-03-24T09:56:22.210Z,17.70
2023-03-24T09:59:19.402Z,17.70
2023-03-24T10:02:13.351Z,17.60
2023-03-24T10:05:00.450Z,17.40
2023-03-24T10:07:53.678Z,17.30
2023-03-24T10:10:47.088Z,17.10
2023-03-24T10:13:44.713Z,16.90
2023-03-24T10:16:38.994Z,16.30
2023-03-24T10:19:36.789Z,15.80
2023-03-24T10:22:28.955Z,15.40
2023-03-24T10:25:21.458Z,15.10
2023-03-24T10:28:17.516Z,14.80
2023-03-24T10:31:09.591Z,14.60
2023-03-24T10:33:57.856Z,14.50
2023-03-24T10:36:46.504Z,14.40
2023-03-24T10:39:44.061Z,14.50
2023-03-24T10:42:35.166Z,14.40
2023-03-24T10:45:27.878Z,14.40
2023-03-24T10:48:16.014Z,14.40
2023-03-24T10:51:03.662Z,14.40
2023-03-24T10:53:50.667Z,14.50
2023-03-24T10:56:42.219Z,14.50
2023-03-24T10:59:32.806Z,14.40
2023-03-24T11:02:22.009Z,14.40
2023-03-24T11:05:16.839Z,14.40
2023-03-24T11:08:26.168Z,14.50
2023-03-24T11:11:16.285Z,14.60
2023-03-24T11:14:04.216Z,14.60
2023-03-24T11:16:51.016Z,14.70
2023-03-24T11:19:37.880Z,14.60
2023-03-24T11:22:26.085Z,14.60
2023-03-24T11:25:14.853Z,14.70
2023-03-24T11:28:03.623Z,14.70
2023-03-24T11:30:52.250Z,15.00
2023-03-24T11:33:46.539Z,15.20
2023-03-24T11:36:47.305Z,15.50
2023-03-24T11:39:35.369Z,15.50
2023-03-24T11:42:28.606Z,15.60
2023-03-24T11:45:24.534Z,15.50
2023-03-24T11:48:24.447Z,15.50
2023-03-24T11:51:12.875Z,15.50
2023-03-24T11:54:03.196Z,15.40
2023-03-24T11:56:54.025Z,15.50
2023-03-24T11:59:50.531Z,15.50
2023-03-24T12:02:50.247Z,15.40
2023-03-24T12:05:40.054Z,15.40
2023-03-24T12:08:43.303Z,15.50
2023-03-24T12:11:44.983Z,15.70
2023-03-24T12:14:40.118Z,15.70
2023-03-24T12:17:32.067Z,15.80
2023-03-24T12:20:28.072Z,15.80
2023-03-24T12:23:19.692Z,15.80
2023-03-24T12:26:16.596Z,15.60
2023-03-24T12:29:27.856Z,15.60
2023-03-24T12:32:25.457Z,15.50
2023-03-24T12:35:46.802Z,15.40
2023-03-24T12:38:50.024Z,15.30
2023-03-24T12:41:56.638Z,15.30
2023-03-24T12:45:03.902Z,15.30
2023-03-24T12:48:17.040Z,15.30
2023-03-24T12:51:15.632Z,15.20
2023-03-24T12:54:13.129Z,15.20
2023-03-24T12:57:02.871Z,15.10
2023-03-24T12:59:54.093Z,15.30
2023-03-24T13:02:46.763Z,15.10
2023-03-24T13:05:36.269Z,15.10
2023-03-24T13:08:29.247Z,15.00
2023-03-24T13:11:32.366Z,15.00
2023-03-24T13:14:24.736Z,15.10
2023-03-24T13:17:18.086Z,15.20
2023-03-24T13:20:08.145Z,15.20
2023-03-24T13:22:56.373Z,15.30
2023-03-24T13:25:49.898Z,15.40
2023-03-24T13:28:41.732Z,15.40
2023-03-24T13:31:32.768Z,15.40
2023-03-24T13:34:26.898Z,15.60
2023-03-24T13:37:16.330Z,15.50
2023-03-24T13:40:10.999Z,15.50
2023-03-24T13:43:00.830Z,15.60
2023-03-24T13:45:51.532Z,15.50
2023-03-24T13:48:41.839Z,15.60
2023-03-24T13:51:31.690Z,15.80
2023-03-24T13:54:21.848Z,15.90
2023-03-24T13:57:16.024Z,16.00
2023-03-24T14:00:20.223Z,16.10
2023-03-24T14:03:15.404Z,16.20
2023-03-24T14:06:03.804Z,16.10
2023-03-24T14:09:02.600Z,16.10
2023-03-24T14:12:18.914Z,16.20
2023-03-24T14:15:22.000Z,16.10
2023-03-24T14:18:17.640Z,15.80
2023-03-24T14:21:08.287Z,15.80
2023-03-24T14:23:56.819Z,15.70
2023-03-24T14:26:45.096Z,15.90
2023-03-24T14:29:40.222Z,16.00
2023-03-24T14:32:28.452Z,16.10
2023-03-24T14:35:30.830Z,16.00
2023-03-24T14:38:24.360Z,15.90
2023-03-24T14:41:15.679Z,15.90
2023-03-24T14:44:05.199Z,15.80
2023-03-24T14:46:51.999Z,15.80
2023-03-24T14:49:44.864Z,16.00
2023-03-24T14:52:36.253Z,16.00
2023-03-24T14:55:24.375Z,16.00
2023-03-24T14:58:21.692Z,15.90
2023-03-24T15:01:10.896Z,15.60
2023-03-24T15:04:01.684Z,15.50
2023-03-24T15:06:49.712Z,15.50
2023-03-24T15:09:38.866Z,15.40
2023-03-24T15:12:25.826Z,15.30
2023-03-24T15:15:16.702Z,15.20
2023-03-24T15:18:04.114Z,15.20
2023-03-24T15:20:51.682Z,15.20
2023-03-24T15:23:39.441Z,15.30
2023-03-24T15:26:26.951Z,15.10
2023-03-24T15:29:13.544Z,15.10
2023-03-24T15:31:59.818Z,15.20
2023-03-24T15:34:51.249Z,15.20
2023-03-24T15:37:42.934Z,15.10
2023-03-24T15:40:37.046Z,15.00
2023-03-24T15:43:24.541Z,15.10
2023-03-24T15:46:23.476Z,15.20
2023-03-24T15:49:21.482Z,15.20
2023-03-24T15:52:28.581Z,15.20
2023-03-24T15:55:28.084Z,15.10
2023-03-24T15:58:28.274Z,15.10
2023-03-24T16:01:18.195Z,15.10
2023-03-24T16:04:08.612Z,15.00
2023-03-24T16:06:57.579Z,14.90
2023-03-24T16:09:44.902Z,14.90
2023-03-24T16:12:32.031Z,14.70
2023-03-24T16:15:20.249Z,14.70
2023-03-24T16:18:07.535Z,14.60
2023-03-24T16:20:53.942Z,14.60
2023-03-24T16:23:42.253Z,14.50
2023-03-24T16:26:30.662Z,14.40
2023-03-24T16:29:18.816Z,14.50
2023-03-24T16:32:07.684Z,14.40
2023-03-24T16:34:54.217Z,14.40
2023-03-24T16:37:42.368Z,14.40
2023-03-24T16:40:34.998Z,14.30
2023-03-24T16:43:21.977Z,14.20
2023-03-24T16:46:13.196Z,14.20
2023-03-24T16:49:02.133Z,14.20
2023-03-24T16:51:49.184Z,14.30
2023-03-24T16:54:35.875Z,14.30
2023-03-24T16:57:22.292Z,14.30
2023-03-24T17:00:11.222Z,14.30
2023-03-24T17:03:00.025Z,14.40
2023-03-24T17:05:53.013Z,14.40
2023-03-24T17:08:39.310Z,14.40
2023-03-24T17:11:29.035Z,14.50
2023-03-24T17:14:17.966Z,14.60
2023-03-24T17:17:04.718Z,14.60
2023-03-24T17:19:51.765Z,14.70
2023-03-24T17:22:40.891Z,14.60
2023-03-24T17:25:29.442Z,14.50
2023-03-24T17:28:17.266Z,14.30
2023-03-24T17:31:04.276Z,14.30
2023-03-24T17:33:50.904Z,14.20
2023-03-24T17:36:37.445Z,14.20
2023-03-24T17:39:25.182Z,14.10
2023-03-24T17:42:11.538Z,14.00
2023-03-24T17:44:58.009Z,13.90
2023-03-24T17:47:44.495Z,13.80
2023-03-24T17:50:31.011Z,13.70
2023-03-24T17:53:25.526Z,13.60
2023-03-24T17:56:13.589Z,13.50
2023-03-24T17:59:00.082Z,13.50
2023-03-24T18:01:47.137Z,13.30
2023-03-24T18:04:34.489Z,13.20
2023-03-24T18:07:21.429Z,13.20
2023-03-24T18:10:09.904Z,13.10
2023-03-24T18:12:57.742Z,13.00
2023-03-24T18:15:44.687Z,12.90
2023-03-24T18:18:31.605Z,12.80
2023-03-24T18:21:21.084Z,12.70
2023-03-24T18:24:08.866Z,12.70
2023-03-24T18:26:55.686Z,12.60
2023-03-24T18:29:43.837Z,12.60
2023-03-24T18:32:33.002Z,12.50
2023-03-24T18:35:20.366Z,12.50
2023-03-24T18:38:06.967Z,12.40
2023-03-24T18:40:59.014Z,12.40
2023-03-24T18:43:47.945Z,12.50
2023-03-24T18:46:36.854Z,12.40
2023-03-24T18:49:23.764Z,12.40
2023-03-24T18:52:10.522Z,12.40
2023-03-24T18:54:57.047Z,12.30
2023-03-24T18:57:43.358Z,12.40
2023-03-24T19:00:29.843Z,12.40
2023-03-24T19:03:17.933Z,12.30
2023-03-24T19:06:06.971Z,12.30
2023-03-24T19:08:54.276Z,12.30
2023-03-24T19:11:43.405Z,12.20
2023-03-24T19:14:31.533Z,12.10
2023-03-24T19:17:18.116Z,12.10
2023-03-24T19:20:09.184Z,12.10
2023-03-24T19:22:55.901Z,12.00
2023-03-24T19:25:45.026Z,12.00
2023-03-24T19:28:35.570Z,12.00
2023-03-24T19:31:23.726Z,12.00
2023-03-24T19:34:10.640Z,11.90
2023-03-24T19:36:58.475Z,11.90
2023-03-24T19:39:45.993Z,12.00
2023-03-24T19:42:33.378Z,12.00
2023-03-24T19:45:21.022Z,11.90
2023-03-24T19:48:07.381Z,11.90
2023-03-24T19:50:55.360Z,11.90
2023-03-24T19:53:45.025Z,11.90
2023-03-24T19:56:31.868Z,12.00
2023-03-24T19:59:18.591Z,12.10
2023-03-24T20:02:06.077Z,12.10
2023-03-24T20:04:55.103Z,12.00
2023-03-24T20:07:41.887Z,11.70
2023-03-24T20:10:30.282Z,11.40
2023-03-24T20:13:19.940Z,11.20
2023-03-24T20:16:07.126Z,11.00
2023-03-24T20:18:54.159Z,11.00
2023-03-24T20:21:44.192Z,10.90
2023-03-24T20:24:31.807Z,11.00
2023-03-24T20:27:19.621Z,10.90
2023-03-24T20:30:11.052Z,11.00
2023-03-24T20:32:57.863Z,11.00
2023-03-24T20:35:45.669Z,11.10
2023-03-24T20:38:34.826Z,11.10
2023-03-24T20:41:21.980Z,11.20
2023-03-24T20:44:10.428Z,11.20
2023-03-24T20:46:58.953Z,11.20
2023-03-24T20:49:45.319Z,11.20
2023-03-24T20:52:32.671Z,11.30
2023-03-24T20:55:19.127Z,11.30
2023-03-24T20:58:08.196Z,11.30
2023-03-24T21:00:56.297Z,11.20
2023-03-24T21:03:42.729Z,11.20
2023-03-24T21:06:29.298Z,11.10
2023-03-24T21:09:16.938Z,11.20
2023-03-24T21:12:04.064Z,11.10
2023-03-24T21:14:51.363Z,11.10
2023-03-24T21:17:40.491Z,11.20
2023-03-24T21:20:28.428Z,11.10
2023-03-24T21:23:14.841Z,11.10
2023-03-24T21:26:02.272Z,11.10
2023-03-24T21:28:49.061Z,11.10
2023-03-24T21:31:35.651Z,11.10
2023-03-24T21:34:23.864Z,11.00
2023-03-24T21:37:14.242Z,10.90
2023-03-24T21:40:06.412Z,10.90
2023-03-24T21:42:54.109Z,10.90
2023-03-24T21:45:41.270Z,10.80
2023-03-24T21:48:28.202Z,10.80
2023-03-24T21:51:18.636Z,10.80
2023-03-24T21:54:07.411Z,10.80
2023-03-24T21:56:53.673Z,10.80
2023-03-24T21:59:40.734Z,10.90
2023-03-24T22:02:27.691Z,11.00
2023-03-24T22:05:15.474Z,11.00
2023-03-24T22:08:06.395Z,11.00
2023-03-24T22:10:57.984Z,11.10
2023-03-24T22:13:44.528Z,11.00
2023-03-24T22:16:31.125Z,11.00
2023-03-24T22:19:17.552Z,10.90
2023-03-24T22:22:03.893Z,10.80
2023-03-24T22:24:51.743Z,10.70
2023-03-24T22:27:39.226Z,10.60
2023-03-24T22:30:26.191Z,10.60
2023-03-24T22:33:13.111Z,10.60
2023-03-24T22:36:00.416Z,10.60
2023-03-24T22:38:46.885Z,10.60
2023-03-24T22:41:34.580Z,10.60
2023-03-24T22:44:21.044Z,10.60
2023-03-24T22:47:07.396Z,10.60
2023-03-24T22:49:53.905Z,10.50
2023-03-24T22:52:40.336Z,10.50
2023-03-24T22:55:27.126Z,10.50
2023-03-24T22:58:15.614Z,10.50
2023-03-24T23:01:03.559Z,10.50
2023-03-24T23:03:50.187Z,10.50
2023-03-24T23:06:38.087Z,10.50
2023-03-24T23:09:24.574Z,10.50
2023-03-24T23:12:11.382Z,10.40
2023-03-24T23:15:00.180Z,10.40
2023-03-24T23:17:47.056Z,10.40
2023-03-24T23:20:34.261Z,10.40
2023-03-24T23:23:20.731Z,10.40
2023-03-24T23:26:13.600Z,10.40
2023-03-24T23:29:13.875Z,10.40
2023-03-24T23:32:01.795Z,10.40
2023-03-24T23:34:49.694Z,10.50
2023-03-24T23:37:39.534Z,10.50
2023-03-24T23:40:26.733Z,10.40
2023-03-24T23:43:13.422Z,10.40
2023-03-24T23:46:00.052Z,10.40
2023-03-24T23:48:47.778Z,10.40
2023-03-24T23:51:34.508Z,10.50
2023-03-24T23:54:20.898Z,10.70
2023-03-24T23:57:12.268Z,10.70
2023-03-24T23:59:59.905Z,10.70
